createdAt,value
2023-05-06T00:00:39.633Z,98807.81
2023-05-06T00:03:25.049Z,98814.91
2023-05-06T00:06:10.612Z,98808.16
2023-05-06T00:08:55.891Z,98795.47
2023-05-06T00:11:41.476Z,98798.25
2023-05-06T00:14:27.049Z,98802.59
2023-05-06T00:17:12.266Z,98793.50
2023-05-06T00:19:58.735Z,98791.47
2023-05-06T00:22:43.900Z,98780.38
2023-05-06T00:25:29.161Z,98781.16
2023-05-06T00:28:15.063Z,98774.81
2023-05-06T00:31:00.662Z,98773.59
2023-05-06T00:33:46.357Z,98756.91
2023-05-06T00:36:31.669Z,98744.59
2023-05-06T00:39:17.376Z,98749.38
2023-05-06T00:42:03.517Z,98747.38
2023-05-06T00:44:51.867Z,98751.72
2023-05-06T00:47:38.054Z,98750.16
2023-05-06T00:50:24.881Z,98744.16
2023-05-06T00:53:10.772Z,98732.25
2023-05-06T00:55:56.509Z,98737.81
2023-05-06T00:58:41.752Z,98735.03
2023-05-06T01:01:27.360Z,98733.84
2023-05-06T01:04:12.994Z,98739.03
2023-05-06T01:07:23.617Z,98735.03
2023-05-06T01:10:53.570Z,98737.81
2023-05-06T01:13:41.695Z,98751.72
2023-05-06T01:16:30.931Z,98739.03
2023-05-06T01:19:30.151Z,98749.69
2023-05-06T01:22:16.628Z,98752.47
2023-05-06T01:25:01.966Z,98753.28
2023-05-06T01:27:47.439Z,98750.94
2023-05-06T01:30:40.725Z,98751.72
2023-05-06T01:33:41.202Z,98750.50
2023-05-06T01:36:39.110Z,98750.50
2023-05-06T01:39:26.181Z,98747.72
2023-05-06T01:42:14.061Z,98752.06
2023-05-06T01:45:02.218Z,98738.16
2023-05-06T01:47:50.103Z,98739.75
2023-05-06T01:50:36.733Z,98736.16
2023-05-06T01:53:22.432Z,98734.19
2023-05-06T01:56:08.022Z,98728.63
2023-05-06T01:58:53.782Z,98727.41
2023-05-06T02:01:39.070Z,98723.84
2023-05-06T02:04:26.003Z,98723.84
2023-05-06T02:07:11.936Z,98713.50
2023-05-06T02:09:57.469Z,98717.06
2023-05-06T02:12:43.899Z,98715.50
2023-05-06T02:15:29.136Z,98707.94
2023-05-06T02:18:15.322Z,98711.50
2023-05-06T02:21:01.798Z,98703.16
2023-05-06T02:23:46.992Z,98701.63
2023-05-06T02:26:32.283Z,98705.94
2023-05-06T02:29:17.431Z,98699.63
2023-05-06T02:32:02.540Z,98697.19
2023-05-06T02:34:47.779Z,98692.84
2023-05-06T02:37:33.089Z,98693.63
2023-05-06T02:40:20.462Z,98697.94
2023-05-06T02:43:05.540Z,98699.19
2023-05-06T02:45:52.750Z,98699.19
2023-05-06T02:48:38.132Z,98697.19
2023-05-06T02:51:23.339Z,98705.53
2023-05-06T02:54:08.652Z,98707.06
2023-05-06T02:56:53.919Z,98712.63
2023-05-06T02:59:39.589Z,98707.06
2023-05-06T03:02:25.334Z,98707.88
2023-05-06T03:05:10.825Z,98705.09
2023-05-06T03:07:56.444Z,98696.41
2023-05-06T03:10:42.147Z,98697.53
2023-05-06T03:13:27.853Z,98692.41
2023-05-06T03:16:14.251Z,98691.63
2023-05-06T03:19:03.873Z,98695.94
2023-05-06T03:21:50.750Z,98689.63
2023-05-06T03:24:37.833Z,98690.41
2023-05-06T03:27:25.242Z,98696.75
2023-05-06T03:30:14.719Z,98698.72
2023-05-06T03:33:01.477Z,98697.53
2023-05-06T03:35:50.214Z,98693.53
2023-05-06T03:38:36.618Z,98696.28
2023-05-06T03:41:25.905Z,98692.31
2023-05-06T03:44:12.170Z,98687.09
2023-05-06T03:46:58.408Z,98697.34
2023-05-06T03:49:44.204Z,98700.47
2023-05-06T03:52:30.273Z,98697.63
2023-05-06T03:55:17.724Z,98691.94
2023-05-06T03:58:02.972Z,98692.63
2023-05-06T04:00:48.188Z,98690.22
2023-05-06T04:03:33.524Z,98692.09
2023-05-06T04:06:19.597Z,98692.78
2023-05-06T04:09:06.402Z,98700.25
2023-05-06T04:11:54.507Z,98698.59
2023-05-06T04:14:40.655Z,98708.41
2023-05-06T04:17:26.900Z,98713.06
2023-05-06T04:20:12.540Z,98712.63
2023-05-06T04:22:58.676Z,98716.19
2023-05-06T04:25:49.037Z,98711.31
2023-05-06T04:28:36.443Z,98713.97
2023-05-06T04:31:23.577Z,98719.09
2023-05-06T04:34:11.260Z,98717.44
2023-05-06T04:36:58.272Z,98717.00
2023-05-06T04:40:04.557Z,98718.91
2023-05-06T04:42:52.424Z,98726.81
2023-05-06T04:45:49.285Z,98729.50
2023-05-06T04:48:39.165Z,98731.06
2023-05-06T04:51:26.844Z,98727.06
2023-05-06T04:54:12.734Z,98724.59
2023-05-06T04:56:59.725Z,98726.16
2023-05-06T04:59:46.337Z,98734.84
2023-05-06T05:02:32.060Z,98736.75
2023-05-06T05:05:17.914Z,98728.75
2023-05-06T05:08:08.003Z,98727.84
2023-05-06T05:10:55.389Z,98724.19
2023-05-06T05:13:42.668Z,98726.97
2023-05-06T05:16:27.867Z,98719.84
2023-05-06T05:19:13.574Z,98732.53
2023-05-06T05:21:58.926Z,98734.97
2023-05-06T05:24:44.661Z,98740.47
2023-05-06T05:27:30.678Z,98744.00
2023-05-06T05:30:16.368Z,98747.91
2023-05-06T05:33:02.212Z,98751.91
2023-05-06T05:35:48.929Z,98740.78
2023-05-06T05:38:34.193Z,98749.91
2023-05-06T05:41:19.454Z,98749.13
2023-05-06T05:44:05.304Z,98744.34
2023-05-06T05:46:50.944Z,98757.84
2023-05-06T05:49:38.441Z,98750.59
2023-05-06T05:52:24.244Z,98752.94
2023-05-06T05:55:09.935Z,98753.84
2023-05-06T05:57:57.327Z,98758.50
2023-05-06T06:00:45.440Z,98762.41
2023-05-06T06:03:33.740Z,98764.00
2023-05-06T06:06:19.787Z,98760.75
2023-05-06T06:09:05.130Z,98763.44
2023-05-06T06:11:50.591Z,98766.56
2023-05-06T06:14:36.240Z,98767.31
2023-05-06T06:17:22.477Z,98769.69
2023-05-06T06:20:10.509Z,98778.03
2023-05-06T06:22:56.910Z,98778.38
2023-05-06T06:25:42.798Z,98782.69
2023-05-06T06:28:28.717Z,98781.16
2023-05-06T06:31:14.059Z,98776.25
2023-05-06T06:33:59.237Z,98783.03
2023-05-06T06:36:45.407Z,98781.84
2023-05-06T06:39:31.166Z,98788.59
2023-05-06T06:42:16.530Z,98792.16
2023-05-06T06:45:17.531Z,98791.72
2023-05-06T06:48:03.352Z,98788.16
2023-05-06T06:50:48.791Z,98779.38
2023-05-06T06:53:35.002Z,98795.28
2023-05-06T06:56:21.416Z,98792.63
2023-05-06T06:59:07.972Z,98794.50
2023-05-06T07:01:53.567Z,98805.75
2023-05-06T07:04:39.140Z,98799.06
2023-05-06T07:07:24.570Z,98807.75
2023-05-06T07:10:10.808Z,98812.09
2023-05-06T07:12:56.668Z,98818.78
2023-05-06T07:15:41.700Z,98811.22
2023-05-06T07:18:27.120Z,98815.88
2023-05-06T07:21:13.454Z,98817.47
2023-05-06T07:23:59.464Z,98818.34
2023-05-06T07:26:45.251Z,98817.69
2023-05-06T07:29:30.704Z,98827.56
2023-05-06T07:32:16.057Z,98826.03
2023-05-06T07:35:01.691Z,98822.00
2023-05-06T07:37:47.689Z,98822.44
2023-05-06T07:40:33.333Z,98832.81
2023-05-06T07:43:18.620Z,98831.25
2023-05-06T07:46:04.253Z,98830.47
2023-05-06T07:48:49.756Z,98836.47
2023-05-06T07:51:35.046Z,98840.03
2023-05-06T07:54:20.663Z,98841.63
2023-05-06T07:57:06.322Z,98844.81
2023-05-06T07:59:52.973Z,98850.41
2023-05-06T08:02:44.033Z,98853.53
2023-05-06T08:05:30.059Z,98859.50
2023-05-06T08:08:15.611Z,98858.31
2023-05-06T08:11:01.193Z,98863.66
2023-05-06T08:13:47.188Z,98861.22
2023-05-06T08:16:32.907Z,98862.00
2023-05-06T08:19:18.484Z,98869.56
2023-05-06T08:22:03.784Z,98875.50
2023-05-06T08:24:49.239Z,98875.84
2023-05-06T08:27:34.496Z,98876.94
2023-05-06T08:30:19.933Z,98875.72
2023-05-06T08:33:05.391Z,98890.31
2023-05-06T08:35:50.954Z,98890.66
2023-05-06T08:38:36.824Z,98884.66
2023-05-06T08:41:22.259Z,98902.91
2023-05-06T08:44:08.421Z,98898.81
2023-05-06T08:46:54.017Z,98899.16
2023-05-06T08:49:39.978Z,98904.63
2023-05-06T08:52:25.237Z,98892.59
2023-05-06T08:55:11.600Z,98900.50
2023-05-06T08:57:58.038Z,98894.47
2023-05-06T09:00:44.432Z,98897.94
2023-05-06T09:03:30.180Z,98910.66
2023-05-06T09:06:15.684Z,98915.75
2023-05-06T09:09:00.905Z,98903.75
2023-05-06T09:11:53.866Z,98899.72
2023-05-06T09:14:40.172Z,98910.88
2023-05-06T09:17:26.949Z,98916.44
2023-05-06T09:20:12.835Z,98919.56
2023-05-06T09:22:58.517Z,98925.16
2023-05-06T09:25:46.165Z,98920.81
2023-05-06T09:28:33.141Z,98918.78
2023-05-06T09:31:18.827Z,98922.34
2023-05-06T09:34:04.176Z,98926.69
2023-05-06T09:36:49.785Z,98918.78
2023-05-06T09:39:35.002Z,98923.25
2023-05-06T09:42:22.633Z,98919.56
2023-05-06T09:45:08.859Z,98922.69
2023-05-06T09:47:58.722Z,98920.34
2023-05-06T09:50:44.532Z,98925.91
2023-05-06T09:53:32.644Z,98925.16
2023-05-06T09:56:19.355Z,98925.16
2023-05-06T09:59:07.919Z,98927.16
2023-05-06T10:01:54.857Z,98931.63
2023-05-06T10:04:42.509Z,98930.38
2023-05-06T10:07:28.839Z,98924.47
2023-05-06T10:10:14.361Z,98930.03
2023-05-06T10:13:02.118Z,98925.69
2023-05-06T10:15:49.314Z,98926.47
2023-05-06T10:18:37.039Z,98931.63
2023-05-06T10:21:25.325Z,98922.91
2023-05-06T10:24:19.333Z,98929.69
2023-05-06T10:27:06.904Z,98936.06
2023-05-06T10:29:59.444Z,98932.47
2023-05-06T10:32:46.045Z,98943.19
2023-05-06T10:35:41.055Z,98947.97
2023-05-06T10:38:45.656Z,98945.19
2023-05-06T10:41:32.146Z,98941.63
2023-05-06T10:44:18.079Z,98945.63
2023-05-06T10:47:05.653Z,98937.19
2023-05-06T10:50:25.966Z,98934.06
2023-05-06T10:53:11.597Z,98935.16
2023-05-06T10:56:09.367Z,98937.97
2023-05-06T10:58:55.890Z,98945.88
2023-05-06T11:01:43.229Z,98950.22
2023-05-06T11:04:31.283Z,98942.63
2023-05-06T11:07:23.230Z,98943.41
2023-05-06T11:10:11.491Z,98947.44
2023-05-06T11:12:56.917Z,98951.44
2023-05-06T11:15:46.365Z,98947.00
2023-05-06T11:18:34.205Z,98948.97
2023-05-06T11:21:31.132Z,98948.66
2023-05-06T11:24:23.714Z,98950.56
2023-05-06T11:27:10.605Z,98948.97
2023-05-06T11:29:56.385Z,98951.75
2023-05-06T11:32:43.290Z,98955.34
2023-05-06T11:35:36.005Z,98963.38
2023-05-06T11:38:21.594Z,98964.16
2023-05-06T11:41:08.611Z,98957.78
2023-05-06T11:43:53.878Z,98968.16
2023-05-06T11:46:39.233Z,98954.25
2023-05-06T11:49:25.788Z,98966.94
2023-05-06T11:52:12.881Z,98962.59
2023-05-06T11:54:58.170Z,98964.56
2023-05-06T11:57:44.884Z,98969.72
2023-05-06T12:00:30.584Z,98965.69
2023-05-06T12:03:16.013Z,98969.72
2023-05-06T12:06:01.411Z,98970.50
2023-05-06T12:08:47.870Z,98973.75
2023-05-06T12:11:33.788Z,98971.72
2023-05-06T12:14:19.586Z,98970.50
2023-05-06T12:17:05.772Z,98982.41
2023-05-06T12:19:51.089Z,98986.44
2023-05-06T12:22:39.761Z,98987.97
2023-05-06T12:25:25.867Z,98982.41
2023-05-06T12:28:27.047Z,98983.66
2023-05-06T12:31:24.323Z,98989.56
2023-05-06T12:34:10.264Z,98984.00
2023-05-06T12:36:56.698Z,98984.75
2023-05-06T12:39:42.742Z,98974.38
2023-05-06T12:42:28.522Z,98976.78
2023-05-06T12:45:16.210Z,98983.56
2023-05-06T12:48:03.224Z,98983.13
2023-05-06T12:50:48.906Z,98981.13
2023-05-06T12:53:35.593Z,98982.34
2023-05-06T12:56:24.755Z,98987.91
2023-05-06T12:59:10.006Z,98993.41
2023-05-06T13:01:55.718Z,98994.59
2023-05-06T13:04:41.386Z,98987.03
2023-05-06T13:07:26.618Z,98990.28
2023-05-06T13:10:12.671Z,98983.94
2023-05-06T13:12:58.255Z,98990.28
2023-05-06T13:15:43.933Z,98976.34
2023-05-06T13:18:29.668Z,98982.25
2023-05-06T13:21:15.266Z,98989.38
2023-05-06T13:24:00.639Z,98976.69
2023-05-06T13:26:46.086Z,98987.03
2023-05-06T13:29:31.949Z,98978.22
2023-05-06T13:32:17.484Z,98984.59
2023-05-06T13:35:02.807Z,98990.16
2023-05-06T13:37:48.261Z,98993.41
2023-05-06T13:40:33.594Z,99001.41
2023-05-06T13:43:19.932Z,98999.84
2023-05-06T13:46:05.286Z,98994.28
2023-05-06T13:48:51.218Z,98990.28
2023-05-06T13:51:36.459Z,98993.06
2023-05-06T13:54:21.671Z,98993.06
2023-05-06T13:57:07.064Z,98994.59
2023-05-06T13:59:52.248Z,98990.16
2023-05-06T14:02:37.712Z,98986.94
2023-05-06T14:05:23.213Z,98981.69
2023-05-06T14:08:08.902Z,98991.59
2023-05-06T14:10:54.748Z,98994.41
2023-05-06T14:13:40.882Z,99000.31
2023-05-06T14:16:26.177Z,99003.56
2023-05-06T14:19:11.505Z,98996.31
2023-05-06T14:21:56.825Z,99003.78
2023-05-06T14:24:42.468Z,99004.91
2023-05-06T14:27:28.018Z,99005.25
2023-05-06T14:30:13.596Z,99012.81
2023-05-06T14:32:59.174Z,99014.72
2023-05-06T14:35:46.077Z,99010.72
2023-05-06T14:38:31.496Z,99011.16
2023-05-06T14:41:16.679Z,99015.94
2023-05-06T14:44:01.792Z,99018.75
2023-05-06T14:46:46.943Z,99018.84
2023-05-06T14:49:32.414Z,99017.50
2023-05-06T14:52:18.047Z,99027.09
2023-05-06T14:55:06.083Z,99032.59
2023-05-06T14:57:51.646Z,99034.91
2023-05-06T15:00:37.118Z,99018.19
2023-05-06T15:03:22.299Z,99016.63
2023-05-06T15:06:07.867Z,99023.41
2023-05-06T15:08:53.496Z,99028.56
2023-05-06T15:11:38.742Z,99030.09
2023-05-06T15:14:24.573Z,99027.31
2023-05-06T15:17:10.115Z,99025.34
2023-05-06T15:19:56.371Z,99028.91
2023-05-06T15:22:41.956Z,99036.50
2023-05-06T15:25:34.866Z,99034.91
2023-05-06T15:28:24.287Z,99042.50
2023-05-06T15:31:09.863Z,99041.38
2023-05-06T15:33:55.220Z,99036.66
2023-05-06T15:36:43.949Z,99046.59
2023-05-06T15:39:29.533Z,99043.81
2023-05-06T15:42:16.711Z,99042.25
2023-05-06T15:45:02.084Z,99047.81
2023-05-06T15:47:48.410Z,99047.81
2023-05-06T15:50:35.989Z,99040.69
2023-05-06T15:53:21.837Z,99049.50
2023-05-06T15:56:17.772Z,99057.06
2023-05-06T15:59:04.376Z,99056.28
2023-05-06T16:02:25.649Z,99049.50
2023-05-06T16:04:56.132Z,99047.50
2023-05-06T16:07:41.610Z,99059.88
2023-05-06T16:10:26.896Z,99056.72
2023-05-06T16:13:12.254Z,99059.94
2023-05-06T16:15:58.326Z,99051.94
2023-05-06T16:18:45.362Z,99051.50
2023-05-06T16:21:30.445Z,99045.50
2023-05-06T16:24:16.120Z,99044.72
2023-05-06T16:27:01.734Z,99042.72
2023-05-06T16:29:47.343Z,99060.19
2023-05-06T16:32:32.639Z,99052.75
2023-05-06T16:35:18.778Z,99058.31
2023-05-06T16:38:04.220Z,99054.72
2023-05-06T16:40:51.164Z,99055.88
2023-05-06T16:43:36.387Z,99068.22
2023-05-06T16:46:24.274Z,99057.84
2023-05-06T16:49:10.143Z,99055.53
2023-05-06T16:51:57.111Z,99047.50
2023-05-06T16:54:42.580Z,99044.72
2023-05-06T16:57:28.099Z,99043.47
2023-05-06T17:00:14.031Z,99059.44
2023-05-06T17:03:00.381Z,99053.94
2023-05-06T17:05:47.050Z,99053.09
2023-05-06T17:08:36.500Z,99060.63
2023-05-06T17:11:22.424Z,99053.09
2023-05-06T17:14:07.733Z,99059.78
2023-05-06T17:16:53.550Z,99058.97
2023-05-06T17:19:39.393Z,99063.75
2023-05-06T17:22:26.587Z,99067.31
2023-05-06T17:25:13.218Z,99063.88
2023-05-06T17:27:59.453Z,99059.09
2023-05-06T17:30:45.249Z,99052.81
2023-05-06T17:33:31.597Z,99059.94
2023-05-06T17:36:19.383Z,99056.38
2023-05-06T17:39:06.382Z,99063.19
2023-05-06T17:41:52.116Z,99068.78
2023-05-06T17:44:38.156Z,99074.34
2023-05-06T17:47:23.304Z,99072.41
2023-05-06T17:50:10.242Z,99070.53
2023-05-06T17:52:55.748Z,99074.56
2023-05-06T17:55:41.500Z,99072.97
2023-05-06T17:58:27.381Z,99080.56
2023-05-06T18:01:12.619Z,99079.44
2023-05-06T18:03:58.798Z,99089.34
2023-05-06T18:06:44.527Z,99083.03
2023-05-06T18:09:30.204Z,99093.78
2023-05-06T18:12:16.164Z,99099.38
2023-05-06T18:15:02.272Z,99095.00
2023-05-06T18:17:47.798Z,99102.56
2023-05-06T18:20:33.206Z,99098.31
2023-05-06T18:23:18.400Z,99101.09
2023-05-06T18:26:05.826Z,99098.75
2023-05-06T18:28:51.689Z,99100.31
2023-05-06T18:31:37.163Z,99102.31
2023-05-06T18:34:22.479Z,99108.66
2023-05-06T18:37:07.812Z,99111.44
2023-05-06T18:39:53.146Z,99114.59
2023-05-06T18:42:38.427Z,99113.03
2023-05-06T18:45:24.578Z,99110.13
2023-05-06T18:48:10.965Z,99114.50
2023-05-06T18:50:56.487Z,99120.84
2023-05-06T18:53:42.346Z,99126.41
2023-05-06T18:56:27.928Z,99128.81
2023-05-06T18:59:13.770Z,99130.34
2023-05-06T19:02:00.094Z,99129.94
2023-05-06T19:04:46.011Z,99137.06
2023-05-06T19:07:32.115Z,99132.59
2023-05-06T19:10:17.973Z,99129.03
2023-05-06T19:13:05.001Z,99137.41
2023-05-06T19:15:50.909Z,99135.75
2023-05-06T19:18:36.177Z,99136.50
2023-05-06T19:21:21.952Z,99138.09
2023-05-06T19:24:07.843Z,99144.88
2023-05-06T19:26:53.045Z,99144.00
2023-05-06T19:29:38.465Z,99144.00
2023-05-06T19:32:23.687Z,99149.25
2023-05-06T19:35:10.218Z,99148.34
2023-05-06T19:37:56.218Z,99146.81
2023-05-06T19:40:41.366Z,99151.91
2023-05-06T19:43:26.837Z,99154.69
2023-05-06T19:46:12.473Z,99159.16
2023-05-06T19:48:58.249Z,99160.38
2023-05-06T19:51:43.579Z,99161.59
2023-05-06T19:54:28.770Z,99160.81
2023-05-06T19:57:14.006Z,99154.38
2023-05-06T19:59:59.683Z,99150.78
2023-05-06T20:02:46.292Z,99147.56
2023-05-06T20:05:32.291Z,99144.34
2023-05-06T20:08:17.815Z,99149.03
2023-05-06T20:11:03.189Z,99152.94
2023-05-06T20:13:48.268Z,99149.72
2023-05-06T20:16:33.735Z,99146.94
2023-05-06T20:19:21.338Z,99152.09
2023-05-06T20:22:06.581Z,99160.09
2023-05-06T20:24:53.171Z,99156.97
2023-05-06T20:27:39.262Z,99158.63
2023-05-06T20:30:24.797Z,99158.28
2023-05-06T20:33:10.586Z,99154.28
2023-05-06T20:35:56.419Z,99154.63
2023-05-06T20:38:41.660Z,99154.63
2023-05-06T20:41:27.042Z,99155.84
2023-05-06T20:44:12.435Z,99158.63
2023-05-06T20:46:57.644Z,99156.63
2023-05-06T20:49:42.908Z,99158.72
2023-05-06T20:52:28.192Z,99161.06
2023-05-06T20:55:16.535Z,99167.00
2023-05-06T20:58:02.020Z,99170.66
2023-05-06T21:00:47.249Z,99171.41
2023-05-06T21:03:32.744Z,99173.09
2023-05-06T21:06:18.929Z,99185.03
2023-05-06T21:09:04.384Z,99171.53
2023-05-06T21:11:49.699Z,99182.34
2023-05-06T21:14:36.031Z,99184.22
2023-05-06T21:17:21.280Z,99189.03
2023-05-06T21:20:07.431Z,99189.81
2023-05-06T21:22:53.053Z,99185.13
2023-05-06T21:25:38.402Z,99182.69
2023-05-06T21:28:23.912Z,99184.34
2023-05-06T21:31:09.424Z,99181.09
2023-05-06T21:33:56.835Z,99184.78
2023-05-06T21:36:42.404Z,99188.34
2023-05-06T21:39:27.599Z,99187.91
2023-05-06T21:42:12.923Z,99195.84
2023-05-06T21:44:58.178Z,99192.25
2023-05-06T21:47:44.958Z,99195.38
2023-05-06T21:50:30.399Z,99192.59
2023-05-06T21:53:15.735Z,99189.81
2023-05-06T21:56:01.166Z,99194.72
2023-05-06T21:58:46.584Z,99192.78
2023-05-06T22:01:32.356Z,99196.81
2023-05-06T22:04:18.822Z,99197.66
2023-05-06T22:07:04.418Z,99186.94
2023-05-06T22:09:49.495Z,99191.03
2023-05-06T22:12:35.324Z,99197.47
2023-05-06T22:15:20.853Z,99191.19
2023-05-06T22:18:07.241Z,99190.53
2023-05-06T22:20:56.493Z,99186.59
2023-05-06T22:23:41.854Z,99186.34
2023-05-06T22:26:30.362Z,99193.13
2023-05-06T22:29:15.826Z,99190.84
2023-05-06T22:32:01.308Z,99193.75
2023-05-06T22:34:46.453Z,99201.75
2023-05-06T22:37:31.658Z,99196.69
2023-05-06T22:40:17.014Z,99194.00
2023-05-06T22:43:02.467Z,99199.22
2023-05-06T22:45:47.869Z,99195.31
2023-05-06T22:48:33.133Z,99200.50
2023-05-06T22:51:18.731Z,99198.16
2023-05-06T22:54:04.304Z,99200.59
2023-05-06T22:56:49.602Z,99195.44
2023-05-06T22:59:34.767Z,99197.09
2023-05-06T23:02:20.185Z,99191.97
2023-05-06T23:05:05.808Z,99185.28
2023-05-06T23:07:51.300Z,99189.69
2023-05-06T23:10:36.610Z,99184.56
2023-05-06T23:13:21.885Z,99193.34
2023-05-06T23:16:10.080Z,99188.66
2023-05-06T23:18:56.808Z,99191.44
2023-05-06T23:21:43.831Z,99189.09
2023-05-06T23:24:29.580Z,99191.50
2023-05-06T23:27:14.910Z,99199.09
2023-05-06T23:30:00.274Z,99195.91
2023-05-06T23:32:45.619Z,99196.34
2023-05-06T23:35:31.093Z,99205.13
2023-05-06T23:38:16.592Z,99200.78
2023-05-06T23:41:01.931Z,99202.00
2023-05-06T23:43:47.181Z,99199.63
2023-05-06T23:46:32.677Z,99192.50
2023-05-06T23:49:18.302Z,99187.38
2023-05-06T23:52:03.904Z,99193.38
2023-05-06T23:54:49.454Z,99197.38
2023-05-06T23:57:34.804Z,99195.78
